GLE weather

Gainesville Municipal Airport
Gainesville, Texas, United States

Public forecast

Using degrees Fahrenheit for public forecast. Weather courtesy of forecast.io.

METAR (pilot weather report)

Retrieved 2019/06/16 14:35 UTC (0 seconds ago):

KGLE 161435Z AUTO 00000KT 10SM BKN009 BKN022 OVC060 22/20 A2993 RMK AO2 T02150195 PWINO

TAF (pilot weather forecast)

Closest forecast is Fort Worth Alliance Airport, 40.3 nm (74.7 km) S. Retrieved 2019/06/16 12:45 UTC (2 hours ago):

TAF KAFW 161143Z 1612/1712 15008KT P6SM BKN035 FM161500 16013KT P6SM SCT035 BKN250 FM162200 17016KT P6SM VCTS BKN050CB TEMPO 1623/1702 5SM TSRA BKN035CB FM170400 12014KT P6SM BKN050